sensor_id;sensor_type;location;lat;lon;timestamp;P1;durP1;ratioP1;P2;durP2;ratioP2
9080;SDS011;13509;50.760;6.080;2023-04-03T00:00:42;4.17;;;2.70;;
9080;SDS011;13509;50.760;6.080;2023-04-03T00:03:10;3.43;;;2.50;;
9080;SDS011;13509;50.760;6.080;2023-04-03T00:05:38;3.73;;;2.30;;
9080;SDS011;13509;50.760;6.080;2023-04-03T00:08:06;4.53;;;2.60;;
9080;SDS011;13509;50.760;6.080;2023-04-03T00:10:35;2.63;;;2.13;;
9080;SDS011;13509;50.760;6.080;2023-04-03T00:13:05;5.23;;;2.77;;
9080;SDS011;13509;50.760;6.080;2023-04-03T00:15:34;4.63;;;2.27;;
9080;SDS011;13509;50.760;6.080;2023-04-03T00:18:04;3.93;;;2.33;;
9080;SDS011;13509;50.760;6.080;2023-04-03T00:20:33;4.83;;;2.97;;
9080;SDS011;13509;50.760;6.080;2023-04-03T00:23:01;3.13;;;2.20;;
9080;SDS011;13509;50.760;6.080;2023-04-03T00:25:30;6.93;;;2.73;;
9080;SDS011;13509;50.760;6.080;2023-04-03T00:27:58;4.00;;;2.33;;
9080;SDS011;13509;50.760;6.080;2023-04-03T00:30:26;6.17;;;2.40;;
9080;SDS011;13509;50.760;6.080;2023-04-03T00:32:55;4.60;;;2.33;;
9080;SDS011;13509;50.760;6.080;2023-04-03T00:35:24;5.67;;;2.70;;
9080;SDS011;13509;50.760;6.080;2023-04-03T00:37:53;4.13;;;2.50;;
9080;SDS011;13509;50.760;6.080;2023-04-03T00:40:22;3.73;;;2.40;;
9080;SDS011;13509;50.760;6.080;2023-04-03T00:42:51;2.93;;;2.23;;
9080;SDS011;13509;50.760;6.080;2023-04-03T00:45:33;3.63;;;2.47;;
9080;SDS011;13509;50.760;6.080;2023-04-03T00:48:02;3.73;;;2.60;;
9080;SDS011;13509;50.760;6.080;2023-04-03T00:50:34;6.90;;;2.90;;
9080;SDS011;13509;50.760;6.080;2023-04-03T00:53:03;4.67;;;2.47;;
9080;SDS011;13509;50.760;6.080;2023-04-03T00:55:32;5.17;;;2.60;;
9080;SDS011;13509;50.760;6.080;2023-04-03T00:58:01;4.80;;;2.77;;
9080;SDS011;13509;50.760;6.080;2023-04-03T01:00:30;6.37;;;2.50;;
9080;SDS011;13509;50.760;6.080;2023-04-03T01:02:58;3.73;;;2.20;;
9080;SDS011;13509;50.760;6.080;2023-04-03T01:05:28;2.87;;;2.20;;
9080;SDS011;13509;50.760;6.080;2023-04-03T01:07:57;5.83;;;2.67;;
9080;SDS011;13509;50.760;6.080;2023-04-03T01:10:26;4.23;;;2.57;;
9080;SDS011;13509;50.760;6.080;2023-04-03T01:12:54;3.57;;;2.53;;
9080;SDS011;13509;50.760;6.080;2023-04-03T01:15:23;3.10;;;2.53;;
9080;SDS011;13509;50.760;6.080;2023-04-03T01:17:52;3.47;;;2.67;;
9080;SDS011;13509;50.760;6.080;2023-04-03T01:20:36;4.43;;;2.33;;
9080;SDS011;13509;50.760;6.080;2023-04-03T01:23:16;3.63;;;2.27;;
9080;SDS011;13509;50.760;6.080;2023-04-03T01:25:49;5.37;;;2.93;;
9080;SDS011;13509;50.760;6.080;2023-04-03T01:28:19;3.97;;;2.73;;
9080;SDS011;13509;50.760;6.080;2023-04-03T01:30:48;3.43;;;2.17;;
9080;SDS011;13509;50.760;6.080;2023-04-03T01:33:19;3.40;;;2.53;;
9080;SDS011;13509;50.760;6.080;2023-04-03T01:35:47;4.70;;;2.77;;
9080;SDS011;13509;50.760;6.080;2023-04-03T01:38:16;4.53;;;2.43;;
9080;SDS011;13509;50.760;6.080;2023-04-03T01:40:44;4.00;;;2.90;;
9080;SDS011;13509;50.760;6.080;2023-04-03T01:43:12;5.30;;;2.37;;
9080;SDS011;13509;50.760;6.080;2023-04-03T01:45:40;3.70;;;2.90;;
9080;SDS011;13509;50.760;6.080;2023-04-03T01:48:09;4.70;;;2.50;;
9080;SDS011;13509;50.760;6.080;2023-04-03T01:50:38;5.13;;;2.40;;
9080;SDS011;13509;50.760;6.080;2023-04-03T01:53:06;3.57;;;2.30;;
9080;SDS011;13509;50.760;6.080;2023-04-03T01:55:35;4.17;;;2.70;;
9080;SDS011;13509;50.760;6.080;2023-04-03T01:58:03;5.13;;;2.50;;
9080;SDS011;13509;50.760;6.080;2023-04-03T02:00:31;3.43;;;2.40;;
9080;SDS011;13509;50.760;6.080;2023-04-03T02:03:00;3.77;;;2.50;;
9080;SDS011;13509;50.760;6.080;2023-04-03T02:05:28;4.53;;;2.93;;
9080;SDS011;13509;50.760;6.080;2023-04-03T02:07:58;3.33;;;2.70;;
9080;SDS011;13509;50.760;6.080;2023-04-03T02:10:26;3.30;;;2.30;;
9080;SDS011;13509;50.760;6.080;2023-04-03T02:12:54;3.20;;;2.73;;
9080;SDS011;13509;50.760;6.080;2023-04-03T02:15:23;2.93;;;2.43;;
9080;SDS011;13509;50.760;6.080;2023-04-03T02:17:51;5.37;;;2.87;;
9080;SDS011;13509;50.760;6.080;2023-04-03T02:20:19;2.80;;;2.60;;
9080;SDS011;13509;50.760;6.080;2023-04-03T02:22:48;4.60;;;2.57;;
9080;SDS011;13509;50.760;6.080;2023-04-03T02:25:17;3.73;;;2.67;;
9080;SDS011;13509;50.760;6.080;2023-04-03T02:27:46;4.33;;;2.97;;
9080;SDS011;13509;50.760;6.080;2023-04-03T02:30:15;4.57;;;3.20;;
9080;SDS011;13509;50.760;6.080;2023-04-03T02:32:43;6.17;;;2.93;;
9080;SDS011;13509;50.760;6.080;2023-04-03T02:35:11;3.83;;;3.33;;
9080;SDS011;13509;50.760;6.080;2023-04-03T02:37:40;5.40;;;3.10;;
9080;SDS011;13509;50.760;6.080;2023-04-03T02:40:08;4.47;;;3.60;;
9080;SDS011;13509;50.760;6.080;2023-04-03T02:42:38;6.60;;;3.00;;
9080;SDS011;13509;50.760;6.080;2023-04-03T02:45:07;5.57;;;3.57;;
9080;SDS011;13509;50.760;6.080;2023-04-03T02:47:35;3.47;;;2.63;;
9080;SDS011;13509;50.760;6.080;2023-04-03T02:50:04;3.77;;;2.93;;
9080;SDS011;13509;50.760;6.080;2023-04-03T02:52:32;5.80;;;3.53;;
9080;SDS011;13509;50.760;6.080;2023-04-03T02:55:00;7.20;;;2.90;;
9080;SDS011;13509;50.760;6.080;2023-04-03T02:57:29;4.83;;;3.27;;
9080;SDS011;13509;50.760;6.080;2023-04-03T02:59:59;5.77;;;2.80;;
9080;SDS011;13509;50.760;6.080;2023-04-03T03:02:27;3.73;;;2.80;;
9080;SDS011;13509;50.760;6.080;2023-04-03T03:04:55;4.23;;;2.73;;
9080;SDS011;13509;50.760;6.080;2023-04-03T03:07:24;4.90;;;3.33;;
9080;SDS011;13509;50.760;6.080;2023-04-03T03:09:52;3.13;;;2.83;;
9080;SDS011;13509;50.760;6.080;2023-04-03T03:12:20;3.67;;;2.90;;
9080;SDS011;13509;50.760;6.080;2023-04-03T03:14:50;5.47;;;3.20;;
9080;SDS011;13509;50.760;6.080;2023-04-03T03:17:19;5.97;;;3.10;;
9080;SDS011;13509;50.760;6.080;2023-04-03T03:19:49;4.27;;;3.50;;
9080;SDS011;13509;50.760;6.080;2023-04-03T03:22:17;7.43;;;3.57;;
9080;SDS011;13509;50.760;6.080;2023-04-03T03:24:45;5.23;;;3.07;;
9080;SDS011;13509;50.760;6.080;2023-04-03T03:27:13;5.57;;;3.17;;
9080;SDS011;13509;50.760;6.080;2023-04-03T03:29:42;4.53;;;3.43;;
9080;SDS011;13509;50.760;6.080;2023-04-03T03:32:10;4.57;;;2.90;;
9080;SDS011;13509;50.760;6.080;2023-04-03T03:34:40;5.03;;;3.33;;
9080;SDS011;13509;50.760;6.080;2023-04-03T03:37:08;3.60;;;3.10;;
9080;SDS011;13509;50.760;6.080;2023-04-03T03:39:36;6.03;;;3.60;;
9080;SDS011;13509;50.760;6.080;2023-04-03T03:42:04;4.37;;;3.57;;
9080;SDS011;13509;50.760;6.080;2023-04-03T03:44:33;5.37;;;3.73;;
9080;SDS011;13509;50.760;6.080;2023-04-03T03:47:01;5.17;;;3.83;;
9080;SDS011;13509;50.760;6.080;2023-04-03T03:49:29;4.67;;;3.83;;
9080;SDS011;13509;50.760;6.080;2023-04-03T03:51:59;6.27;;;3.43;;
9080;SDS011;13509;50.760;6.080;2023-04-03T03:54:27;5.77;;;3.60;;
9080;SDS011;13509;50.760;6.080;2023-04-03T03:56:55;6.00;;;3.60;;
9080;SDS011;13509;50.760;6.080;2023-04-03T03:59:23;4.33;;;3.70;;
9080;SDS011;13509;50.760;6.080;2023-04-03T04:01:52;4.93;;;3.50;;
9080;SDS011;13509;50.760;6.080;2023-04-03T04:04:21;4.77;;;3.70;;
9080;SDS011;13509;50.760;6.080;2023-04-03T04:06:49;4.87;;;4.00;;
9080;SDS011;13509;50.760;6.080;2023-04-03T04:09:19;6.40;;;4.10;;
9080;SDS011;13509;50.760;6.080;2023-04-03T04:11:47;8.63;;;4.13;;
9080;SDS011;13509;50.760;6.080;2023-04-03T04:14:16;6.13;;;4.00;;
9080;SDS011;13509;50.760;6.080;2023-04-03T04:16:44;4.77;;;3.63;;
9080;SDS011;13509;50.760;6.080;2023-04-03T04:19:12;7.53;;;4.03;;
9080;SDS011;13509;50.760;6.080;2023-04-03T04:21:40;7.77;;;4.00;;
9080;SDS011;13509;50.760;6.080;2023-04-03T04:24:09;8.37;;;4.33;;
9080;SDS011;13509;50.760;6.080;2023-04-03T04:26:38;8.00;;;4.17;;
9080;SDS011;13509;50.760;6.080;2023-04-03T04:29:08;8.27;;;4.50;;
9080;SDS011;13509;50.760;6.080;2023-04-03T04:31:36;5.77;;;4.00;;
9080;SDS011;13509;50.760;6.080;2023-04-03T04:34:04;8.50;;;4.50;;
9080;SDS011;13509;50.760;6.080;2023-04-03T04:36:32;8.40;;;4.83;;
9080;SDS011;13509;50.760;6.080;2023-04-03T04:39:01;6.90;;;4.50;;
9080;SDS011;13509;50.760;6.080;2023-04-03T04:41:29;7.20;;;4.93;;
9080;SDS011;13509;50.760;6.080;2023-04-03T04:43:59;8.63;;;4.47;;
9080;SDS011;13509;50.760;6.080;2023-04-03T04:46:27;6.77;;;4.73;;
9080;SDS011;13509;50.760;6.080;2023-04-03T04:48:55;9.33;;;4.80;;
9080;SDS011;13509;50.760;6.080;2023-04-03T04:51:24;8.13;;;5.10;;
9080;SDS011;13509;50.760;6.080;2023-04-03T04:53:58;6.97;;;4.93;;
9080;SDS011;13509;50.760;6.080;2023-04-03T04:56:26;9.07;;;5.83;;
9080;SDS011;13509;50.760;6.080;2023-04-03T04:58:54;8.67;;;5.20;;
9080;SDS011;13509;50.760;6.080;2023-04-03T05:01:24;14.37;;;5.93;;
9080;SDS011;13509;50.760;6.080;2023-04-03T05:03:52;7.43;;;5.80;;
9080;SDS011;13509;50.760;6.080;2023-04-03T05:06:20;7.33;;;5.37;;
9080;SDS011;13509;50.760;6.080;2023-04-03T05:08:48;9.87;;;6.17;;
9080;SDS011;13509;50.760;6.080;2023-04-03T05:11:16;10.10;;;6.10;;
9080;SDS011;13509;50.760;6.080;2023-04-03T05:13:45;7.90;;;5.80;;
9080;SDS011;13509;50.760;6.080;2023-04-03T05:16:13;11.17;;;5.83;;
9080;SDS011;13509;50.760;6.080;2023-04-03T05:18:42;11.00;;;6.30;;
9080;SDS011;13509;50.760;6.080;2023-04-03T05:21:11;12.10;;;8.00;;
9080;SDS011;13509;50.760;6.080;2023-04-03T05:23:39;10.17;;;6.97;;
9080;SDS011;13509;50.760;6.080;2023-04-03T05:26:07;8.50;;;6.67;;
9080;SDS011;13509;50.760;6.080;2023-04-03T05:28:35;7.93;;;6.13;;
9080;SDS011;13509;50.760;6.080;2023-04-03T05:31:04;9.70;;;6.77;;
9080;SDS011;13509;50.760;6.080;2023-04-03T05:33:32;12.30;;;7.00;;
9080;SDS011;13509;50.760;6.080;2023-04-03T05:36:03;8.37;;;6.40;;
9080;SDS011;13509;50.760;6.080;2023-04-03T05:38:32;11.27;;;7.67;;
9080;SDS011;13509;50.760;6.080;2023-04-03T05:41:00;11.67;;;7.73;;
9080;SDS011;13509;50.760;6.080;2023-04-03T05:43:28;9.23;;;7.83;;
9080;SDS011;13509;50.760;6.080;2023-04-03T05:45:56;12.20;;;7.70;;
9080;SDS011;13509;50.760;6.080;2023-04-03T05:48:25;12.77;;;8.07;;
9080;SDS011;13509;50.760;6.080;2023-04-03T05:50:53;8.97;;;7.93;;
9080;SDS011;13509;50.760;6.080;2023-04-03T05:53:25;9.80;;;7.33;;
9080;SDS011;13509;50.760;6.080;2023-04-03T05:55:54;7.47;;;5.90;;
9080;SDS011;13509;50.760;6.080;2023-04-03T05:58:22;11.83;;;5.97;;
9080;SDS011;13509;50.760;6.080;2023-04-03T06:00:50;4.47;;;4.00;;
9080;SDS011;13509;50.760;6.080;2023-04-03T06:03:19;6.10;;;3.73;;
9080;SDS011;13509;50.760;6.080;2023-04-03T06:05:47;6.97;;;4.60;;
9080;SDS011;13509;50.760;6.080;2023-04-03T06:08:16;5.83;;;4.07;;
9080;SDS011;13509;50.760;6.080;2023-04-03T06:10:46;9.47;;;4.30;;
9080;SDS011;13509;50.760;6.080;2023-04-03T06:13:14;8.33;;;4.10;;
9080;SDS011;13509;50.760;6.080;2023-04-03T06:15:43;6.07;;;3.60;;
9080;SDS011;13509;50.760;6.080;2023-04-03T06:18:11;5.03;;;3.87;;
9080;SDS011;13509;50.760;6.080;2023-04-03T06:20:39;8.87;;;3.87;;
9080;SDS011;13509;50.760;6.080;2023-04-03T06:23:07;5.60;;;3.40;;
9080;SDS011;13509;50.760;6.080;2023-04-03T06:25:36;5.50;;;3.60;;
9080;SDS011;13509;50.760;6.080;2023-04-03T06:28:06;6.50;;;4.07;;
9080;SDS011;13509;50.760;6.080;2023-04-03T06:30:35;8.37;;;3.50;;
9080;SDS011;13509;50.760;6.080;2023-04-03T06:33:04;8.27;;;3.50;;
9080;SDS011;13509;50.760;6.080;2023-04-03T06:35:32;4.87;;;3.40;;
9080;SDS011;13509;50.760;6.080;2023-04-03T06:38:01;4.83;;;3.57;;
9080;SDS011;13509;50.760;6.080;2023-04-03T06:40:30;5.13;;;3.50;;
9080;SDS011;13509;50.760;6.080;2023-04-03T06:42:58;5.20;;;3.60;;
9080;SDS011;13509;50.760;6.080;2023-04-03T06:45:28;6.17;;;3.87;;
9080;SDS011;13509;50.760;6.080;2023-04-03T06:47:56;6.77;;;3.90;;
9080;SDS011;13509;50.760;6.080;2023-04-03T06:50:24;5.17;;;3.90;;
9080;SDS011;13509;50.760;6.080;2023-04-03T06:52:53;5.87;;;3.87;;
9080;SDS011;13509;50.760;6.080;2023-04-03T06:55:21;7.73;;;3.93;;
9080;SDS011;13509;50.760;6.080;2023-04-03T06:57:49;7.37;;;3.70;;
9080;SDS011;13509;50.760;6.080;2023-04-03T07:00:18;6.80;;;3.67;;
9080;SDS011;13509;50.760;6.080;2023-04-03T07:02:47;7.00;;;3.33;;
9080;SDS011;13509;50.760;6.080;2023-04-03T07:05:16;6.87;;;3.67;;
9080;SDS011;13509;50.760;6.080;2023-04-03T07:07:44;6.83;;;2.97;;
9080;SDS011;13509;50.760;6.080;2023-04-03T07:10:12;9.53;;;3.23;;
9080;SDS011;13509;50.760;6.080;2023-04-03T07:12:41;4.67;;;3.20;;
9080;SDS011;13509;50.760;6.080;2023-04-03T07:15:09;4.37;;;3.13;;
9080;SDS011;13509;50.760;6.080;2023-04-03T07:17:38;5.17;;;3.20;;
9080;SDS011;13509;50.760;6.080;2023-04-03T07:20:08;5.57;;;2.63;;
9080;SDS011;13509;50.760;6.080;2023-04-03T07:22:37;7.73;;;3.20;;
9080;SDS011;13509;50.760;6.080;2023-04-03T07:25:05;3.73;;;2.70;;
9080;SDS011;13509;50.760;6.080;2023-04-03T07:27:34;7.47;;;2.63;;
9080;SDS011;13509;50.760;6.080;2023-04-03T07:30:02;5.60;;;3.10;;
9080;SDS011;13509;50.760;6.080;2023-04-03T07:32:31;7.73;;;3.17;;
9080;SDS011;13509;50.760;6.080;2023-04-03T07:34:59;6.50;;;3.77;;
9080;SDS011;13509;50.760;6.080;2023-04-03T07:37:30;4.73;;;2.77;;
9080;SDS011;13509;50.760;6.080;2023-04-03T07:39:58;7.17;;;3.30;;
9080;SDS011;13509;50.760;6.080;2023-04-03T07:42:29;4.17;;;2.33;;
9080;SDS011;13509;50.760;6.080;2023-04-03T07:44:57;5.97;;;2.73;;
9080;SDS011;13509;50.760;6.080;2023-04-03T07:47:26;5.00;;;2.43;;
9080;SDS011;13509;50.760;6.080;2023-04-03T07:49:54;9.20;;;2.60;;
9080;SDS011;13509;50.760;6.080;2023-04-03T07:52:23;4.70;;;2.30;;
9080;SDS011;13509;50.760;6.080;2023-04-03T07:54:52;5.23;;;2.40;;
9080;SDS011;13509;50.760;6.080;2023-04-03T07:57:21;3.50;;;2.30;;
9080;SDS011;13509;50.760;6.080;2023-04-03T07:59:49;5.87;;;2.33;;
9080;SDS011;13509;50.760;6.080;2023-04-03T08:02:17;5.40;;;2.53;;
9080;SDS011;13509;50.760;6.080;2023-04-03T08:04:46;3.67;;;2.20;;
9080;SDS011;13509;50.760;6.080;2023-04-03T08:07:14;3.77;;;2.10;;
9080;SDS011;13509;50.760;6.080;2023-04-03T08:09:42;3.20;;;2.30;;
9080;SDS011;13509;50.760;6.080;2023-04-03T08:12:12;3.43;;;2.37;;
9080;SDS011;13509;50.760;6.080;2023-04-03T08:14:41;4.47;;;2.07;;
9080;SDS011;13509;50.760;6.080;2023-04-03T08:17:09;2.53;;;2.13;;
9080;SDS011;13509;50.760;6.080;2023-04-03T08:19:38;3.37;;;2.33;;
9080;SDS011;13509;50.760;6.080;2023-04-03T08:22:07;2.67;;;2.00;;
9080;SDS011;13509;50.760;6.080;2023-04-03T08:24:35;4.93;;;2.00;;
9080;SDS011;13509;50.760;6.080;2023-04-03T08:27:08;6.30;;;2.33;;
9080;SDS011;13509;50.760;6.080;2023-04-03T08:29:38;3.63;;;2.27;;
9080;SDS011;13509;50.760;6.080;2023-04-03T08:32:06;4.90;;;2.30;;
9080;SDS011;13509;50.760;6.080;2023-04-03T08:34:35;4.30;;;1.97;;
9080;SDS011;13509;50.760;6.080;2023-04-03T08:37:05;2.83;;;2.03;;
9080;SDS011;13509;50.760;6.080;2023-04-03T08:39:33;4.90;;;2.17;;
9080;SDS011;13509;50.760;6.080;2023-04-03T08:42:03;3.40;;;2.00;;
9080;SDS011;13509;50.760;6.080;2023-04-03T08:44:36;6.80;;;2.53;;
9080;SDS011;13509;50.760;6.080;2023-04-03T08:47:13;7.83;;;2.20;;
9080;SDS011;13509;50.760;6.080;2023-04-03T08:49:46;4.17;;;1.97;;
9080;SDS011;13509;50.760;6.080;2023-04-03T08:52:18;6.20;;;2.47;;
9080;SDS011;13509;50.760;6.080;2023-04-03T08:54:49;5.90;;;2.40;;
9080;SDS011;13509;50.760;6.080;2023-04-03T08:57:17;4.27;;;2.40;;
9080;SDS011;13509;50.760;6.080;2023-04-03T08:59:48;3.53;;;2.27;;
9080;SDS011;13509;50.760;6.080;2023-04-03T09:02:23;6.77;;;2.70;;
9080;SDS011;13509;50.760;6.080;2023-04-03T09:04:52;6.50;;;2.60;;
9080;SDS011;13509;50.760;6.080;2023-04-03T09:07:22;7.37;;;3.03;;
9080;SDS011;13509;50.760;6.080;2023-04-03T09:09:54;4.83;;;2.43;;
9080;SDS011;13509;50.760;6.080;2023-04-03T09:12:25;3.87;;;2.50;;
9080;SDS011;13509;50.760;6.080;2023-04-03T09:14:57;3.40;;;2.27;;
9080;SDS011;13509;50.760;6.080;2023-04-03T09:17:34;6.50;;;2.70;;
9080;SDS011;13509;50.760;6.080;2023-04-03T09:20:07;5.27;;;2.47;;
9080;SDS011;13509;50.760;6.080;2023-04-03T09:22:38;4.83;;;2.73;;
9080;SDS011;13509;50.760;6.080;2023-04-03T09:25:17;9.07;;;2.80;;
9080;SDS011;13509;50.760;6.080;2023-04-03T09:27:46;6.17;;;2.30;;
9080;SDS011;13509;50.760;6.080;2023-04-03T09:30:15;6.07;;;2.60;;
9080;SDS011;13509;50.760;6.080;2023-04-03T09:32:46;3.83;;;2.07;;
9080;SDS011;13509;50.760;6.080;2023-04-03T09:35:19;7.53;;;2.60;;
9080;SDS011;13509;50.760;6.080;2023-04-03T09:38:01;7.10;;;2.23;;
9080;SDS011;13509;50.760;6.080;2023-04-03T09:40:31;8.00;;;2.23;;
9080;SDS011;13509;50.760;6.080;2023-04-03T09:43:02;4.00;;;2.23;;
9080;SDS011;13509;50.760;6.080;2023-04-03T09:45:31;8.27;;;2.47;;
9080;SDS011;13509;50.760;6.080;2023-04-03T09:48:08;4.37;;;2.30;;
9080;SDS011;13509;50.760;6.080;2023-04-03T09:50:52;3.80;;;2.30;;
9080;SDS011;13509;50.760;6.080;2023-04-03T09:53:25;2.80;;;1.90;;
9080;SDS011;13509;50.760;6.080;2023-04-03T09:55:54;5.37;;;2.00;;
9080;SDS011;13509;50.760;6.080;2023-04-03T09:58:23;4.57;;;2.73;;
9080;SDS011;13509;50.760;6.080;2023-04-03T10:00:59;5.87;;;2.33;;
9080;SDS011;13509;50.760;6.080;2023-04-03T10:03:30;4.73;;;2.20;;
9080;SDS011;13509;50.760;6.080;2023-04-03T10:06:00;4.97;;;2.20;;
9080;SDS011;13509;50.760;6.080;2023-04-03T10:08:29;2.50;;;2.03;;
9080;SDS011;13509;50.760;6.080;2023-04-03T10:11:06;3.73;;;2.13;;
9080;SDS011;13509;50.760;6.080;2023-04-03T10:13:36;2.87;;;2.00;;
9080;SDS011;13509;50.760;6.080;2023-04-03T10:16:16;3.60;;;2.07;;
9080;SDS011;13509;50.760;6.080;2023-04-03T10:18:48;3.50;;;1.80;;
9080;SDS011;13509;50.760;6.080;2023-04-03T10:21:20;4.33;;;2.20;;
9080;SDS011;13509;50.760;6.080;2023-04-03T10:23:54;3.97;;;2.07;;
9080;SDS011;13509;50.760;6.080;2023-04-03T10:26:29;6.80;;;2.37;;
9080;SDS011;13509;50.760;6.080;2023-04-03T10:29:02;4.03;;;1.83;;
9080;SDS011;13509;50.760;6.080;2023-04-03T10:31:36;4.87;;;2.00;;
9080;SDS011;13509;50.760;6.080;2023-04-03T10:34:18;6.40;;;2.30;;
9080;SDS011;13509;50.760;6.080;2023-04-03T10:36:50;3.30;;;1.70;;
9080;SDS011;13509;50.760;6.080;2023-04-03T10:39:23;3.50;;;2.17;;
9080;SDS011;13509;50.760;6.080;2023-04-03T10:41:58;6.50;;;2.17;;
9080;SDS011;13509;50.760;6.080;2023-04-03T10:44:47;4.63;;;1.63;;
9080;SDS011;13509;50.760;6.080;2023-04-03T10:47:20;2.37;;;1.77;;
9080;SDS011;13509;50.760;6.080;2023-04-03T10:49:53;5.60;;;2.13;;
9080;SDS011;13509;50.760;6.080;2023-04-03T10:52:27;4.43;;;1.80;;
9080;SDS011;13509;50.760;6.080;2023-04-03T10:55:01;2.47;;;1.67;;
9080;SDS011;13509;50.760;6.080;2023-04-03T10:57:30;3.23;;;1.60;;
9080;SDS011;13509;50.760;6.080;2023-04-03T10:59:59;7.10;;;1.63;;
9080;SDS011;13509;50.760;6.080;2023-04-03T11:02:29;5.10;;;1.40;;
9080;SDS011;13509;50.760;6.080;2023-04-03T11:05:01;4.17;;;1.70;;
9080;SDS011;13509;50.760;6.080;2023-04-03T11:07:33;3.27;;;1.60;;
9080;SDS011;13509;50.760;6.080;2023-04-03T11:10:03;5.17;;;1.67;;
9080;SDS011;13509;50.760;6.080;2023-04-03T11:12:35;4.30;;;1.43;;
9080;SDS011;13509;50.760;6.080;2023-04-03T11:15:04;2.77;;;1.40;;
9080;SDS011;13509;50.760;6.080;2023-04-03T11:17:33;5.03;;;1.80;;
9080;SDS011;13509;50.760;6.080;2023-04-03T11:20:06;3.90;;;1.97;;
9080;SDS011;13509;50.760;6.080;2023-04-03T11:22:38;3.80;;;1.87;;
9080;SDS011;13509;50.760;6.080;2023-04-03T11:25:13;2.87;;;1.57;;
9080;SDS011;13509;50.760;6.080;2023-04-03T11:27:47;4.20;;;1.67;;
9080;SDS011;13509;50.760;6.080;2023-04-03T11:30:18;1.67;;;1.30;;
9080;SDS011;13509;50.760;6.080;2023-04-03T11:35:44;3.77;;;1.60;;
9080;SDS011;13509;50.760;6.080;2023-04-03T11:38:15;5.70;;;1.80;;
9080;SDS011;13509;50.760;6.080;2023-04-03T11:40:45;2.60;;;1.30;;
9080;SDS011;13509;50.760;6.080;2023-04-03T11:43:21;2.30;;;1.73;;
9080;SDS011;13509;50.760;6.080;2023-04-03T11:45:55;3.60;;;1.70;;
9080;SDS011;13509;50.760;6.080;2023-04-03T11:54:07;2.67;;;1.60;;
9080;SDS011;13509;50.760;6.080;2023-04-03T11:57:30;4.20;;;1.50;;
9080;SDS011;13509;50.760;6.080;2023-04-03T12:02:58;3.73;;;1.57;;
9080;SDS011;13509;50.760;6.080;2023-04-03T12:05:27;1.33;;;1.10;;
9080;SDS011;13509;50.760;6.080;2023-04-03T12:10:43;3.90;;;1.63;;
9080;SDS011;13509;50.760;6.080;2023-04-03T12:13:33;2.87;;;1.27;;
9080;SDS011;13509;50.760;6.080;2023-04-03T12:16:02;3.00;;;1.30;;
9080;SDS011;13509;50.760;6.080;2023-04-03T12:18:32;2.90;;;1.67;;
9080;SDS011;13509;50.760;6.080;2023-04-03T12:21:07;5.43;;;1.50;;
9080;SDS011;13509;50.760;6.080;2023-04-03T12:23:36;3.40;;;1.77;;
9080;SDS011;13509;50.760;6.080;2023-04-03T12:26:06;1.90;;;1.50;;
9080;SDS011;13509;50.760;6.080;2023-04-03T12:28:49;4.57;;;1.93;;
9080;SDS011;13509;50.760;6.080;2023-04-03T12:31:19;2.33;;;1.53;;
9080;SDS011;13509;50.760;6.080;2023-04-03T12:33:56;4.20;;;1.57;;
9080;SDS011;13509;50.760;6.080;2023-04-03T12:36:28;4.10;;;1.40;;
9080;SDS011;13509;50.760;6.080;2023-04-03T12:39:01;5.73;;;1.40;;
9080;SDS011;13509;50.760;6.080;2023-04-03T12:41:36;2.67;;;1.37;;
9080;SDS011;13509;50.760;6.080;2023-04-03T12:44:11;4.90;;;1.50;;
9080;SDS011;13509;50.760;6.080;2023-04-03T12:46:42;2.47;;;1.30;;
9080;SDS011;13509;50.760;6.080;2023-04-03T12:49:18;2.00;;;1.30;;
9080;SDS011;13509;50.760;6.080;2023-04-03T12:51:50;4.93;;;1.20;;
9080;SDS011;13509;50.760;6.080;2023-04-03T12:54:19;4.67;;;1.60;;
9080;SDS011;13509;50.760;6.080;2023-04-03T12:56:48;3.70;;;1.43;;
9080;SDS011;13509;50.760;6.080;2023-04-03T12:59:20;3.20;;;1.50;;
9080;SDS011;13509;50.760;6.080;2023-04-03T13:01:55;2.30;;;1.57;;
9080;SDS011;13509;50.760;6.080;2023-04-03T13:04:23;5.30;;;1.83;;
9080;SDS011;13509;50.760;6.080;2023-04-03T13:06:52;7.40;;;1.70;;
9080;SDS011;13509;50.760;6.080;2023-04-03T13:09:21;3.60;;;1.50;;
9080;SDS011;13509;50.760;6.080;2023-04-03T13:11:51;2.53;;;1.50;;
9080;SDS011;13509;50.760;6.080;2023-04-03T13:14:24;4.90;;;1.63;;
9080;SDS011;13509;50.760;6.080;2023-04-03T13:16:54;3.27;;;1.10;;
9080;SDS011;13509;50.760;6.080;2023-04-03T13:19:24;1.77;;;1.37;;
9080;SDS011;13509;50.760;6.080;2023-04-03T13:21:56;2.80;;;1.40;;
9080;SDS011;13509;50.760;6.080;2023-04-03T13:24:27;6.13;;;1.50;;
9080;SDS011;13509;50.760;6.080;2023-04-03T13:26:56;3.30;;;1.60;;
9080;SDS011;13509;50.760;6.080;2023-04-03T13:29:27;2.17;;;1.50;;
9080;SDS011;13509;50.760;6.080;2023-04-03T13:31:58;3.17;;;1.57;;
9080;SDS011;13509;50.760;6.080;2023-04-03T13:34:34;2.73;;;1.60;;
9080;SDS011;13509;50.760;6.080;2023-04-03T13:37:03;2.83;;;1.67;;
9080;SDS011;13509;50.760;6.080;2023-04-03T13:39:35;3.27;;;1.50;;
9080;SDS011;13509;50.760;6.080;2023-04-03T13:42:14;1.97;;;1.37;;
9080;SDS011;13509;50.760;6.080;2023-04-03T13:44:44;4.10;;;1.67;;
9080;SDS011;13509;50.760;6.080;2023-04-03T13:47:14;3.17;;;1.30;;
9080;SDS011;13509;50.760;6.080;2023-04-03T13:49:44;2.00;;;1.20;;
9080;SDS011;13509;50.760;6.080;2023-04-03T13:52:22;6.37;;;1.20;;
9080;SDS011;13509;50.760;6.080;2023-04-03T13:54:52;1.70;;;1.07;;
9080;SDS011;13509;50.760;6.080;2023-04-03T13:57:21;1.20;;;1.10;;
9080;SDS011;13509;50.760;6.080;2023-04-03T13:59:51;1.30;;;1.20;;
9080;SDS011;13509;50.760;6.080;2023-04-03T14:02:20;3.20;;;1.40;;
9080;SDS011;13509;50.760;6.080;2023-04-03T14:04:53;5.13;;;1.10;;
9080;SDS011;13509;50.760;6.080;2023-04-03T14:07:24;3.47;;;1.30;;
9080;SDS011;13509;50.760;6.080;2023-04-03T14:09:52;2.50;;;1.10;;
9080;SDS011;13509;50.760;6.080;2023-04-03T14:12:24;3.27;;;1.50;;
9080;SDS011;13509;50.760;6.080;2023-04-03T14:14:59;1.97;;;1.20;;
9080;SDS011;13509;50.760;6.080;2023-04-03T14:17:28;1.57;;;1.30;;
9080;SDS011;13509;50.760;6.080;2023-04-03T14:19:57;1.20;;;1.10;;
9080;SDS011;13509;50.760;6.080;2023-04-03T14:22:28;3.23;;;1.23;;
9080;SDS011;13509;50.760;6.080;2023-04-03T14:24:56;1.50;;;1.13;;
9080;SDS011;13509;50.760;6.080;2023-04-03T14:27:25;1.90;;;1.10;;
9080;SDS011;13509;50.760;6.080;2023-04-03T14:29:55;1.73;;;1.10;;
9080;SDS011;13509;50.760;6.080;2023-04-03T14:32:25;2.23;;;1.23;;
9080;SDS011;13509;50.760;6.080;2023-04-03T14:34:53;2.50;;;1.20;;
9080;SDS011;13509;50.760;6.080;2023-04-03T14:37:23;2.87;;;1.30;;
9080;SDS011;13509;50.760;6.080;2023-04-03T14:39:52;1.70;;;1.20;;
9080;SDS011;13509;50.760;6.080;2023-04-03T14:42:22;2.00;;;1.27;;
9080;SDS011;13509;50.760;6.080;2023-04-03T14:44:51;2.40;;;1.20;;
9080;SDS011;13509;50.760;6.080;2023-04-03T14:47:20;2.27;;;1.30;;
9080;SDS011;13509;50.760;6.080;2023-04-03T14:49:58;2.27;;;1.10;;
9080;SDS011;13509;50.760;6.080;2023-04-03T14:52:28;3.17;;;1.30;;
9080;SDS011;13509;50.760;6.080;2023-04-03T14:54:57;1.97;;;1.10;;
9080;SDS011;13509;50.760;6.080;2023-04-03T14:57:27;2.00;;;1.10;;
9080;SDS011;13509;50.760;6.080;2023-04-03T14:59:55;3.90;;;1.30;;
9080;SDS011;13509;50.760;6.080;2023-04-03T15:02:25;1.50;;;1.20;;
9080;SDS011;13509;50.760;6.080;2023-04-03T15:04:54;4.40;;;1.37;;
9080;SDS011;13509;50.760;6.080;2023-04-03T15:07:25;1.57;;;1.20;;
9080;SDS011;13509;50.760;6.080;2023-04-03T15:09:54;2.00;;;1.13;;
9080;SDS011;13509;50.760;6.080;2023-04-03T15:12:22;1.30;;;1.20;;
9080;SDS011;13509;50.760;6.080;2023-04-03T15:14:51;1.50;;;1.00;;
9080;SDS011;13509;50.760;6.080;2023-04-03T15:17:28;2.13;;;1.03;;
9080;SDS011;13509;50.760;6.080;2023-04-03T15:19:57;2.47;;;1.27;;
9080;SDS011;13509;50.760;6.080;2023-04-03T15:22:27;1.17;;;1.03;;
9080;SDS011;13509;50.760;6.080;2023-04-03T15:24:55;2.90;;;1.40;;
9080;SDS011;13509;50.760;6.080;2023-04-03T15:27:24;1.13;;;1.03;;
9080;SDS011;13509;50.760;6.080;2023-04-03T15:29:52;1.47;;;1.10;;
9080;SDS011;13509;50.760;6.080;2023-04-03T15:32:20;1.20;;;1.10;;